createdAt,value
2018-01-13T00:00:16.133Z,85.50
2018-01-13T00:02:43.664Z,85.50
2018-01-13T00:05:11.979Z,85.90
2018-01-13T00:07:39.513Z,85.90
2018-01-13T00:10:07.802Z,86.10
2018-01-13T00:12:36.137Z,86.10
2018-01-13T00:15:03.667Z,86.00
2018-01-13T00:17:31.956Z,86.00
2018-01-13T00:19:59.539Z,85.90
2018-01-13T00:22:39.070Z,86.00
2018-01-13T00:25:06.636Z,86.10
2018-01-13T00:27:34.165Z,86.00
2018-01-13T00:30:02.451Z,86.40
2018-01-13T00:32:30.760Z,86.10
2018-01-13T00:34:58.281Z,86.00
2018-01-13T00:37:25.824Z,86.00
2018-01-13T00:39:53.428Z,86.40
2018-01-13T00:42:21.717Z,86.30
2018-01-13T00:44:50.013Z,86.60
2018-01-13T00:47:17.837Z,86.60
2018-01-13T00:49:45.363Z,86.40
2018-01-13T00:52:12.890Z,85.90
2018-01-13T00:54:41.191Z,86.60
2018-01-13T00:57:09.497Z,86.00
2018-01-13T00:59:37.025Z,86.00
2018-01-13T01:02:05.332Z,86.00
2018-01-13T01:04:32.857Z,85.90
2018-01-13T01:07:01.138Z,85.90
2018-01-13T01:09:30.207Z,85.70
2018-01-13T01:11:57.747Z,85.70
2018-01-13T01:14:25.268Z,85.60
2018-01-13T01:16:52.834Z,85.60
2018-01-13T01:19:20.357Z,85.70
2018-01-13T01:21:47.885Z,85.80
2018-01-13T01:24:16.193Z,85.50
2018-01-13T01:26:43.719Z,85.40
2018-01-13T01:29:11.245Z,85.50
2018-01-13T01:31:38.866Z,85.50
2018-01-13T01:34:06.387Z,85.60
2018-01-13T01:36:33.917Z,85.60
2018-01-13T01:39:01.484Z,85.10
2018-01-13T01:41:29.004Z,85.10
2018-01-13T01:43:57.302Z,85.20
2018-01-13T01:46:25.612Z,85.30
2018-01-13T01:48:53.279Z,84.60
2018-01-13T01:51:20.793Z,84.60
2018-01-13T01:53:48.322Z,84.80
2018-01-13T01:56:15.843Z,84.80
2018-01-13T01:58:44.715Z,84.90
2018-01-13T02:01:12.264Z,84.80
2018-01-13T02:03:39.795Z,84.90
2018-01-13T02:06:07.316Z,84.30
2018-01-13T02:08:34.862Z,84.50
2018-01-13T02:11:02.413Z,84.80
2018-01-13T02:13:29.927Z,84.90
2018-01-13T02:15:58.420Z,84.70
2018-01-13T02:18:26.745Z,84.60
2018-01-13T02:20:54.265Z,84.50
2018-01-13T02:23:22.572Z,84.70
2018-01-13T02:25:50.135Z,84.70
2018-01-13T02:28:17.651Z,84.60
2018-01-13T02:30:45.200Z,85.30
2018-01-13T02:33:12.731Z,84.50
2018-01-13T02:35:40.261Z,84.60
2018-01-13T02:38:08.607Z,85.60
2018-01-13T02:40:36.131Z,84.60
2018-01-13T02:43:03.661Z,84.70
2018-01-13T02:45:31.977Z,84.80
2018-01-13T02:47:59.503Z,84.80
2018-01-13T02:50:27.036Z,84.70
2018-01-13T02:52:54.588Z,84.60
2018-01-13T02:55:22.150Z,84.60
2018-01-13T02:57:49.673Z,84.30
2018-01-13T03:00:18.023Z,84.40
2018-01-13T03:02:45.545Z,84.00
2018-01-13T03:05:13.839Z,84.00
2018-01-13T03:07:41.396Z,84.00
2018-01-13T03:10:08.933Z,84.00
2018-01-13T03:12:36.459Z,84.00
2018-01-13T03:15:03.994Z,84.00
2018-01-13T03:17:32.289Z,83.90
2018-01-13T03:19:59.848Z,83.90
2018-01-13T03:22:28.440Z,83.80
2018-01-13T03:24:55.989Z,83.90
2018-01-13T03:27:24.389Z,83.80
2018-01-13T03:29:51.940Z,83.80
2018-01-13T03:32:20.243Z,83.60
2018-01-13T03:34:47.762Z,83.60
2018-01-13T03:37:16.082Z,83.40
2018-01-13T03:39:43.623Z,84.00
2018-01-13T03:42:11.910Z,84.10
2018-01-13T03:44:40.340Z,84.10
2018-01-13T03:47:07.863Z,84.00
2018-01-13T03:49:35.394Z,83.90
2018-01-13T03:52:02.950Z,84.00
2018-01-13T03:54:30.505Z,83.90
2018-01-13T03:56:58.025Z,84.00
2018-01-13T03:59:25.588Z,84.10
2018-01-13T04:01:53.881Z,83.90
2018-01-13T04:04:21.453Z,83.90
2018-01-13T04:06:49.070Z,83.60
2018-01-13T04:09:16.595Z,83.70
2018-01-13T04:11:44.111Z,83.70
2018-01-13T04:14:12.426Z,83.20
2018-01-13T04:16:40.201Z,83.60
2018-01-13T04:19:07.715Z,83.50
2018-01-13T04:21:35.256Z,83.30
2018-01-13T04:24:02.781Z,83.30
2018-01-13T04:26:31.245Z,83.30
2018-01-13T04:28:59.562Z,83.80
2018-01-13T04:31:27.685Z,83.40
2018-01-13T04:33:55.256Z,83.60
2018-01-13T04:36:22.820Z,83.80
2018-01-13T04:38:50.344Z,83.60
2018-01-13T04:41:17.901Z,83.40
2018-01-13T04:43:45.452Z,83.60
2018-01-13T04:46:12.986Z,83.50
2018-01-13T04:48:40.507Z,83.40
2018-01-13T04:51:08.046Z,83.60
2018-01-13T04:53:35.614Z,83.20
2018-01-13T04:56:03.147Z,83.20
2018-01-13T04:58:31.064Z,83.10
2018-01-13T05:00:58.577Z,83.20
2018-01-13T05:03:26.097Z,83.10
2018-01-13T05:05:53.641Z,83.40
2018-01-13T05:08:21.927Z,83.50
2018-01-13T05:10:49.481Z,83.50
2018-01-13T05:13:17.992Z,83.50
2018-01-13T05:15:45.512Z,83.40
2018-01-13T05:18:13.058Z,83.40
2018-01-13T05:20:40.768Z,83.50
2018-01-13T05:23:09.052Z,83.90
2018-01-13T05:25:37.355Z,83.60
2018-01-13T05:28:05.176Z,83.60
2018-01-13T05:30:32.691Z,83.50
2018-01-13T05:33:00.219Z,83.50
2018-01-13T05:35:27.858Z,83.40
2018-01-13T05:37:55.375Z,82.60
2018-01-13T05:40:22.899Z,83.50
2018-01-13T05:42:50.452Z,83.50
2018-01-13T05:45:17.984Z,83.50
2018-01-13T05:47:45.559Z,83.20
2018-01-13T05:50:13.102Z,83.10
2018-01-13T05:52:40.668Z,83.10
2018-01-13T05:55:08.421Z,82.90
2018-01-13T05:57:36.750Z,83.30
2018-01-13T06:00:04.257Z,83.30
2018-01-13T06:02:31.789Z,82.90
2018-01-13T06:04:59.385Z,83.10
2018-01-13T06:07:26.900Z,83.10
2018-01-13T06:09:54.609Z,83.30
2018-01-13T06:12:22.184Z,82.80
2018-01-13T06:14:50.476Z,83.10
2018-01-13T06:17:18.767Z,82.80
2018-01-13T06:19:47.080Z,83.10
2018-01-13T06:22:14.600Z,82.90
2018-01-13T06:24:42.889Z,82.70
2018-01-13T06:27:11.212Z,82.80
2018-01-13T06:29:38.856Z,82.80
2018-01-13T06:32:06.397Z,82.60
2018-01-13T06:34:33.951Z,82.60
2018-01-13T06:37:01.494Z,82.70
2018-01-13T06:39:29.023Z,82.90
2018-01-13T06:41:56.583Z,83.00
2018-01-13T06:44:24.855Z,82.90
2018-01-13T06:46:52.401Z,82.90
2018-01-13T06:49:19.951Z,83.00
2018-01-13T06:51:47.482Z,82.90
2018-01-13T06:54:15.008Z,83.00
2018-01-13T06:56:43.325Z,82.70
2018-01-13T06:59:10.982Z,82.60
2018-01-13T07:01:38.511Z,82.50
2018-01-13T07:04:06.842Z,82.50
2018-01-13T07:06:34.372Z,82.50
2018-01-13T07:09:02.661Z,82.80
2018-01-13T07:11:30.235Z,82.70
2018-01-13T07:13:57.756Z,82.50
2018-01-13T07:16:25.294Z,81.80
2018-01-13T07:18:52.845Z,81.80
2018-01-13T07:21:20.381Z,81.70
2018-01-13T07:23:48.678Z,81.80
2018-01-13T07:26:17.101Z,81.80
2018-01-13T07:28:44.628Z,81.20
2018-01-13T07:31:12.160Z,80.40
2018-01-13T07:33:39.758Z,81.00
2018-01-13T07:36:07.292Z,80.70
2018-01-13T07:38:35.588Z,81.10
2018-01-13T07:41:03.909Z,81.00
2018-01-13T07:43:31.460Z,81.00
2018-01-13T07:45:58.984Z,81.20
2018-01-13T07:48:27.296Z,81.10
2018-01-13T07:50:54.849Z,81.10
2018-01-13T07:53:23.153Z,81.10
2018-01-13T07:55:51.001Z,81.20
2018-01-13T07:58:19.290Z,81.20
2018-01-13T08:00:46.820Z,81.10
2018-01-13T08:03:14.385Z,80.30
2018-01-13T08:05:41.960Z,80.10
2018-01-13T08:08:09.508Z,80.30
2018-01-13T08:10:37.060Z,80.50
2018-01-13T08:13:04.803Z,80.70
2018-01-13T08:15:32.356Z,80.30
2018-01-13T08:17:59.907Z,80.30
2018-01-13T08:20:28.220Z,80.20
2018-01-13T08:22:55.741Z,80.10
2018-01-13T08:25:23.284Z,80.10
2018-01-13T08:27:50.823Z,80.20
2018-01-13T08:30:18.344Z,80.40
2018-01-13T08:32:46.845Z,80.10
2018-01-13T08:35:15.145Z,80.10
2018-01-13T08:37:42.708Z,80.00
2018-01-13T08:40:10.236Z,80.30
2018-01-13T08:42:37.781Z,80.50
2018-01-13T08:45:05.330Z,80.30
2018-01-13T08:47:32.879Z,79.30
2018-01-13T08:50:00.427Z,79.40
2018-01-13T08:52:28.724Z,79.40
2018-01-13T08:54:56.271Z,79.30
2018-01-13T08:57:23.801Z,79.70
2018-01-13T08:59:51.324Z,79.40
2018-01-13T09:02:21.490Z,79.40
2018-01-13T09:04:49.083Z,79.60
2018-01-13T09:07:16.629Z,79.40
2018-01-13T09:09:44.184Z,79.20
2018-01-13T09:12:11.735Z,78.90
2018-01-13T09:14:39.292Z,79.40
2018-01-13T09:17:06.851Z,78.80
2018-01-13T09:19:34.391Z,78.60
2018-01-13T09:22:01.920Z,78.90
2018-01-13T09:24:30.231Z,78.30
2018-01-13T09:26:57.761Z,78.80
2018-01-13T09:29:25.348Z,78.60
2018-01-13T09:31:53.654Z,78.40
2018-01-13T09:34:21.181Z,78.20
2018-01-13T09:36:49.548Z,78.40
2018-01-13T09:39:17.090Z,78.40
2018-01-13T09:41:44.650Z,78.20
2018-01-13T09:44:12.195Z,78.20
2018-01-13T09:46:39.729Z,77.90
2018-01-13T09:49:08.026Z,77.30
2018-01-13T09:51:36.332Z,77.60
2018-01-13T09:54:03.843Z,77.50
2018-01-13T09:56:31.373Z,77.50
2018-01-13T09:58:58.908Z,77.50
2018-01-13T10:01:26.470Z,77.50
2018-01-13T10:03:54.757Z,76.80
2018-01-13T10:06:22.289Z,76.70
2018-01-13T10:08:49.896Z,76.70
2018-01-13T10:11:17.419Z,76.30
2018-01-13T10:13:44.965Z,76.60
2018-01-13T10:16:12.514Z,75.70
2018-01-13T10:18:40.032Z,75.50
2018-01-13T10:21:08.326Z,75.20
2018-01-13T10:23:35.876Z,75.20
2018-01-13T10:26:04.175Z,74.50
2018-01-13T10:28:31.740Z,74.50
2018-01-13T10:30:59.284Z,74.70
2018-01-13T10:33:27.579Z,74.90
2018-01-13T10:35:55.879Z,74.60
2018-01-13T10:38:23.594Z,74.60
2018-01-13T10:40:51.125Z,74.10
2018-01-13T10:43:18.734Z,74.20
2018-01-13T10:45:46.284Z,74.10
2018-01-13T10:48:13.825Z,74.20
2018-01-13T10:50:41.478Z,73.80
2018-01-13T10:53:09.022Z,74.40
2018-01-13T10:55:37.308Z,73.80
2018-01-13T10:58:05.708Z,73.40
2018-01-13T11:00:33.276Z,73.40
2018-01-13T11:03:00.813Z,73.20
2018-01-13T11:05:29.103Z,73.70
2018-01-13T11:07:57.424Z,73.50
2018-01-13T11:10:24.955Z,73.50
2018-01-13T11:12:52.565Z,73.40
2018-01-13T11:15:20.102Z,73.40
2018-01-13T11:17:47.633Z,73.50
2018-01-13T11:20:16.078Z,72.40
2018-01-13T11:22:43.615Z,72.30
2018-01-13T11:25:11.146Z,72.90
2018-01-13T11:27:39.457Z,73.00
2018-01-13T11:30:07.013Z,73.00
2018-01-13T11:32:34.566Z,73.50
2018-01-13T11:35:02.868Z,73.30
2018-01-13T11:37:30.420Z,72.90
2018-01-13T11:39:58.710Z,72.80
2018-01-13T11:42:26.246Z,72.80
2018-01-13T11:44:53.928Z,73.00
2018-01-13T11:47:22.220Z,74.10
2018-01-13T11:49:49.762Z,74.00
2018-01-13T11:52:17.316Z,73.60
2018-01-13T11:54:44.848Z,74.50
2018-01-13T11:57:12.379Z,74.40
2018-01-13T11:59:40.005Z,74.70
2018-01-13T12:02:07.607Z,74.40
2018-01-13T12:04:35.957Z,75.10
2018-01-13T12:07:03.523Z,75.10
2018-01-13T12:09:31.067Z,75.70
2018-01-13T12:11:58.655Z,76.60
2018-01-13T12:14:26.193Z,76.10
2018-01-13T12:16:53.739Z,75.70
2018-01-13T12:19:21.391Z,75.20
2018-01-13T12:21:49.750Z,76.10
2018-01-13T12:24:17.289Z,76.00
2018-01-13T12:26:44.791Z,75.80
2018-01-13T12:29:13.159Z,76.70
2018-01-13T12:31:40.666Z,76.50
2018-01-13T12:34:08.195Z,76.90
2018-01-13T12:36:36.031Z,77.10
2018-01-13T12:39:03.555Z,77.10
2018-01-13T12:41:31.963Z,77.50
2018-01-13T12:43:59.512Z,77.40
2018-01-13T12:46:27.040Z,77.70
2018-01-13T12:48:54.590Z,77.70
2018-01-13T12:51:22.149Z,77.60
2018-01-13T12:53:50.495Z,78.00
2018-01-13T12:56:18.017Z,78.80
2018-01-13T12:58:45.581Z,78.00
2018-01-13T13:01:13.116Z,78.00
2018-01-13T13:03:40.639Z,78.00
2018-01-13T13:06:08.254Z,78.10
2018-01-13T13:08:35.742Z,78.40
2018-01-13T13:11:03.282Z,78.80
2018-01-13T13:13:30.837Z,78.90
2018-01-13T13:15:58.588Z,78.90
2018-01-13T13:18:26.125Z,78.60
2018-01-13T13:20:54.581Z,79.10
2018-01-13T13:23:22.104Z,79.10
2018-01-13T13:25:49.925Z,79.00
2018-01-13T13:28:17.504Z,79.00
2018-01-13T13:30:45.895Z,79.10
2018-01-13T13:33:14.187Z,78.90
2018-01-13T13:35:42.549Z,79.10
2018-01-13T13:38:10.131Z,79.10
2018-01-13T13:40:37.616Z,79.40
2018-01-13T13:43:06.213Z,79.50
2018-01-13T13:45:33.900Z,79.50
2018-01-13T13:48:01.432Z,79.50
2018-01-13T13:50:28.971Z,79.70
2018-01-13T13:52:57.326Z,79.00
2018-01-13T13:55:24.853Z,79.10
2018-01-13T13:57:52.389Z,79.30
2018-01-13T14:00:21.072Z,79.70
2018-01-13T14:02:49.362Z,79.80
2018-01-13T14:05:17.671Z,79.30
2018-01-13T14:07:45.278Z,79.30
2018-01-13T14:10:12.826Z,79.30
2018-01-13T14:12:40.374Z,79.30
2018-01-13T14:15:07.900Z,79.30
2018-01-13T14:17:36.192Z,79.20
2018-01-13T14:20:04.505Z,78.60
2018-01-13T14:22:32.041Z,78.50
2018-01-13T14:25:01.041Z,78.00
2018-01-13T14:27:29.390Z,77.40
2018-01-13T14:29:58.854Z,77.30
2018-01-13T14:32:26.371Z,77.10
2018-01-13T14:34:54.829Z,76.60
2018-01-13T14:37:23.204Z,76.90
2018-01-13T14:39:50.728Z,76.30
2018-01-13T14:42:19.108Z,75.60
2018-01-13T14:44:46.617Z,75.60
2018-01-13T14:47:14.432Z,75.60
2018-01-13T14:49:42.043Z,75.10
2018-01-13T14:52:09.580Z,75.40
2018-01-13T14:54:37.866Z,75.20
2018-01-13T14:57:06.176Z,75.40
2018-01-13T14:59:33.729Z,75.40
2018-01-13T15:02:01.254Z,75.30
2018-01-13T15:04:28.814Z,75.30
2018-01-13T15:06:56.358Z,75.30
2018-01-13T15:09:24.095Z,75.10
2018-01-13T15:11:51.717Z,75.10
2018-01-13T15:14:19.241Z,74.90
2018-01-13T15:16:46.772Z,75.60
2018-01-13T15:19:15.109Z,75.50
2018-01-13T15:21:42.638Z,75.40
2018-01-13T15:24:10.175Z,75.20
2018-01-13T15:26:37.735Z,75.50
2018-01-13T15:29:05.285Z,75.80
2018-01-13T15:31:32.844Z,75.60
2018-01-13T15:34:00.399Z,75.60
2018-01-13T15:36:27.935Z,75.90
2018-01-13T15:38:55.473Z,75.50
2018-01-13T15:41:23.811Z,75.90
2018-01-13T15:43:51.348Z,75.90
2018-01-13T15:46:18.889Z,75.80
2018-01-13T15:48:47.295Z,76.00
2018-01-13T15:51:14.869Z,76.00
2018-01-13T15:53:42.418Z,75.70
2018-01-13T15:56:10.000Z,75.30
2018-01-13T15:58:37.532Z,75.30
2018-01-13T16:01:05.832Z,75.30
2018-01-13T16:03:33.401Z,75.20
2018-01-13T16:06:01.121Z,75.20
2018-01-13T16:08:28.667Z,75.40
2018-01-13T16:10:56.217Z,75.60
2018-01-13T16:13:23.765Z,75.60
2018-01-13T16:15:51.295Z,75.90
2018-01-13T16:18:18.949Z,75.90
2018-01-13T16:20:46.664Z,75.80
2018-01-13T16:23:14.197Z,75.80
2018-01-13T16:25:41.752Z,76.10
2018-01-13T16:28:10.998Z,75.70
2018-01-13T16:30:38.532Z,75.70
2018-01-13T16:33:06.093Z,75.70
2018-01-13T16:35:33.608Z,75.80
2018-01-13T16:38:01.135Z,76.10
2018-01-13T16:40:29.550Z,75.80
2018-01-13T16:42:57.106Z,75.70
2018-01-13T16:45:25.400Z,75.70
2018-01-13T16:47:53.194Z,75.70
2018-01-13T16:50:20.726Z,75.50
2018-01-13T16:52:48.306Z,75.50
2018-01-13T16:55:17.191Z,75.90
2018-01-13T16:57:44.729Z,75.90
2018-01-13T17:00:13.037Z,76.10
2018-01-13T17:02:40.584Z,76.70
2018-01-13T17:05:08.163Z,76.00
2018-01-13T17:07:35.729Z,75.70
2018-01-13T17:10:03.689Z,75.90
2018-01-13T17:12:31.995Z,76.00
2018-01-13T17:14:59.526Z,76.00
2018-01-13T17:17:27.328Z,76.00
2018-01-13T17:19:54.993Z,76.10
2018-01-13T17:22:22.534Z,76.20
2018-01-13T17:24:50.146Z,76.50
2018-01-13T17:27:17.791Z,76.30
2018-01-13T17:29:45.412Z,76.60
2018-01-13T17:32:12.983Z,76.60
2018-01-13T17:34:41.299Z,76.70
2018-01-13T17:37:08.840Z,76.60
2018-01-13T17:39:37.162Z,77.30
2018-01-13T17:42:04.761Z,76.40
2018-01-13T17:44:32.276Z,76.50
2018-01-13T17:47:00.670Z,76.20
2018-01-13T17:49:28.225Z,76.10
2018-01-13T17:51:55.755Z,76.30
2018-01-13T17:54:23.345Z,76.10
2018-01-13T17:56:51.704Z,76.50
2018-01-13T17:59:19.216Z,76.50
2018-01-13T18:01:46.808Z,76.60
2018-01-13T18:04:14.351Z,76.80
2018-01-13T18:06:41.883Z,76.20
2018-01-13T18:09:10.186Z,76.10
2018-01-13T18:11:37.724Z,76.10
2018-01-13T18:14:05.296Z,76.60
2018-01-13T18:16:33.937Z,76.70
2018-01-13T18:19:01.485Z,76.70
2018-01-13T18:21:29.008Z,76.90
2018-01-13T18:23:57.328Z,76.40
2018-01-13T18:26:24.872Z,76.40
2018-01-13T18:28:53.169Z,76.10
2018-01-13T18:31:21.042Z,76.10
2018-01-13T18:33:48.527Z,76.30
2018-01-13T18:36:16.053Z,76.10
2018-01-13T18:38:44.385Z,76.00
2018-01-13T18:41:11.925Z,76.00
2018-01-13T18:43:39.464Z,76.10
2018-01-13T18:46:07.789Z,76.30
2018-01-13T18:48:35.323Z,76.20
2018-01-13T18:51:02.852Z,76.30
2018-01-13T18:53:30.405Z,76.50
2018-01-13T18:55:57.957Z,76.20
2018-01-13T18:58:25.506Z,76.40
2018-01-13T19:00:53.056Z,76.50
2018-01-13T19:03:20.631Z,76.50
2018-01-13T19:05:48.092Z,76.30
2018-01-13T19:08:15.631Z,76.60
2018-01-13T19:10:43.923Z,76.70
2018-01-13T19:13:11.448Z,76.70
2018-01-13T19:15:39.778Z,76.70
2018-01-13T19:18:07.323Z,76.70
2018-01-13T19:20:36.356Z,76.60
2018-01-13T19:23:03.913Z,76.60
2018-01-13T19:25:31.445Z,76.90
2018-01-13T19:27:59.745Z,77.30
2018-01-13T19:30:27.484Z,77.20
2018-01-13T19:32:55.793Z,78.20
2018-01-13T19:35:24.101Z,77.60
2018-01-13T19:37:51.664Z,77.60
2018-01-13T19:40:19.216Z,77.60
2018-01-13T19:42:46.893Z,77.80
2018-01-13T19:45:14.482Z,77.60
2018-01-13T19:47:41.998Z,77.80
2018-01-13T19:50:10.293Z,78.10
2018-01-13T19:52:37.860Z,78.10
2018-01-13T19:55:05.400Z,78.10
2018-01-13T19:57:33.701Z,77.80
2018-01-13T20:00:02.012Z,78.40
2018-01-13T20:02:29.541Z,78.40
2018-01-13T20:04:57.947Z,78.90
2018-01-13T20:07:25.519Z,78.90
2018-01-13T20:09:53.058Z,79.50
2018-01-13T20:12:21.359Z,80.10
2018-01-13T20:14:49.026Z,80.10
2018-01-13T20:17:16.642Z,80.20
2018-01-13T20:19:44.123Z,80.60
2018-01-13T20:22:12.594Z,81.20
2018-01-13T20:24:40.163Z,81.20
2018-01-13T20:27:08.493Z,81.50
2018-01-13T20:29:36.050Z,81.50
2018-01-13T20:32:04.333Z,81.60
2018-01-13T20:34:31.882Z,81.50
2018-01-13T20:37:00.420Z,82.00
2018-01-13T20:39:28.102Z,82.00
2018-01-13T20:41:55.777Z,82.10
2018-01-13T20:44:23.468Z,82.30
2018-01-13T20:46:51.808Z,82.70
2018-01-13T20:49:19.452Z,82.70
2018-01-13T20:51:47.014Z,82.70
2018-01-13T20:54:14.549Z,82.70
2018-01-13T20:56:42.905Z,82.80
2018-01-13T20:59:11.123Z,82.70
2018-01-13T21:01:38.697Z,82.90
2018-01-13T21:04:06.239Z,83.00
2018-01-13T21:06:33.799Z,83.20
2018-01-13T21:09:01.434Z,83.40
2018-01-13T21:11:28.952Z,83.50
2018-01-13T21:13:57.280Z,83.60
2018-01-13T21:16:24.800Z,83.60
2018-01-13T21:18:52.341Z,83.60
2018-01-13T21:21:19.900Z,83.60
2018-01-13T21:23:47.479Z,83.80
2018-01-13T21:26:15.037Z,84.00
2018-01-13T21:28:42.929Z,84.20
2018-01-13T21:31:11.230Z,84.50
2018-01-13T21:33:38.765Z,84.40
2018-01-13T21:36:07.065Z,84.70
2018-01-13T21:38:34.595Z,84.60
2018-01-13T21:41:02.145Z,85.70
2018-01-13T21:43:29.691Z,85.00
2018-01-13T21:45:57.216Z,85.10
2018-01-13T21:48:25.525Z,85.40
2018-01-13T21:50:53.077Z,85.30
2018-01-13T21:53:20.621Z,85.40
2018-01-13T21:55:48.177Z,85.40
2018-01-13T21:58:15.782Z,85.50
2018-01-13T22:00:43.297Z,86.30
2018-01-13T22:03:11.862Z,85.50
2018-01-13T22:05:39.405Z,85.60
2018-01-13T22:08:06.945Z,85.90
2018-01-13T22:10:35.246Z,86.30
2018-01-13T22:13:02.827Z,86.30
2018-01-13T22:15:30.364Z,86.50
2018-01-13T22:17:57.906Z,86.50
2018-01-13T22:20:25.446Z,86.50
2018-01-13T22:22:52.979Z,86.10
2018-01-13T22:25:20.505Z,86.60
2018-01-13T22:27:48.835Z,86.70
2018-01-13T22:30:16.375Z,86.60
2018-01-13T22:32:43.893Z,86.70
2018-01-13T22:35:11.452Z,86.60
2018-01-13T22:37:38.941Z,86.60
2018-01-13T22:40:06.487Z,86.60
2018-01-13T22:42:34.035Z,86.60
2018-01-13T22:45:01.677Z,86.90
2018-01-13T22:47:29.276Z,87.00
2018-01-13T22:49:56.895Z,87.60
2018-01-13T22:52:24.570Z,86.90
2018-01-13T22:54:52.130Z,88.10
2018-01-13T22:57:20.449Z,87.70
2018-01-13T22:59:47.978Z,87.70
2018-01-13T23:02:15.548Z,87.60
2018-01-13T23:04:43.105Z,87.30
2018-01-13T23:07:11.585Z,87.40
2018-01-13T23:09:39.888Z,87.60
2018-01-13T23:12:07.439Z,87.30
2018-01-13T23:14:35.001Z,87.40
2018-01-13T23:17:03.340Z,87.50
2018-01-13T23:19:30.906Z,87.50
2018-01-13T23:21:58.526Z,87.70
2018-01-13T23:24:26.048Z,88.10
2018-01-13T23:26:53.604Z,88.00
2018-01-13T23:29:21.136Z,88.10
2018-01-13T23:31:48.657Z,88.30
2018-01-13T23:34:16.223Z,88.30
2018-01-13T23:36:44.519Z,88.60
2018-01-13T23:39:12.926Z,88.80
2018-01-13T23:41:40.589Z,88.70
2018-01-13T23:44:08.119Z,88.90
2018-01-13T23:46:35.651Z,89.00
2018-01-13T23:49:03.308Z,89.00
2018-01-13T23:51:30.838Z,89.10
2018-01-13T23:53:59.122Z,89.30
2018-01-13T23:56:26.677Z,89.20
2018-01-13T23:58:54.985Z,89.40
